TimeCST,TemperatureF,Dew PointF,Humidity,Sea Level PressureIn,VisibilityMPH,Wind Direction,Wind SpeedMPH,Gust SpeedMPH,PrecipitationIn,Events,Conditions,WindDirDegrees,DateUTC
12:36 AM,21.2,15.8,80,30.04,7.0,Variable,4.6,-,0.00,Snow,Light Snow,0,2013-01-03 06:36:00
12:48 AM,21.2,15.8,80,30.04,7.0,Variable,5.8,-,0.00,Snow,Light Snow,0,2013-01-03 06:48:00
12:53 AM,21.9,16.0,78,30.08,7.0,Variable,3.5,-,0.00,Snow,Light Snow,0,2013-01-03 06:53:00
1:14 AM,21.2,15.8,80,30.04,7.0,Variable,3.5,-,0.00,Snow,Light Snow,0,2013-01-03 07:14:00
1:39 AM,21.2,15.8,80,30.05,7.0,West,4.6,-,0.00,Snow,Light Snow,280,2013-01-03 07:39:00
1:47 AM,21.2,15.8,80,30.05,6.0,WNW,5.8,-,0.00,Snow,Light Snow,290,2013-01-03 07:47:00
1:53 AM,21.2,15.8,80,30.05,6.0,Calm,Calm,-,N/A,Snow,Light Snow,0,2013-01-03 07:53:00
1:58 AM,21.2,15.8,80,30.05,6.0,WNW,5.8,-,0.00,Snow,Light Snow,290,2013-01-03 07:58:00
2:37 AM,21.2,17.6,86,30.06,6.0,West,5.8,-,0.00,Snow,Light Snow,280,2013-01-03 08:37:00
2:53 AM,21.9,17.1,82,30.09,5.0,West,4.6,-,0.00,Snow,Light Snow,280,2013-01-03 08:53:00
3:05 AM,21.2,17.6,86,30.05,5.0,West,4.6,-,0.00,Snow,Light Snow,280,2013-01-03 09:05:00
3:53 AM,21.9,18.0,85,30.09,5.0,West,4.6,-,0.00,Snow,Light Snow,280,2013-01-03 09:53:00
4:02 AM,21.2,17.6,86,30.05,5.0,WNW,6.9,-,0.00,Snow,Light Snow,290,2013-01-03 10:02:00
4:53 AM,21.9,18.0,85,30.09,5.0,WNW,6.9,-,0.00,Snow,Light Snow,290,2013-01-03 10:53:00
5:53 AM,21.9,18.0,85,30.11,5.0,WNW,4.6,-,0.00,,Overcast,290,2013-01-03 11:53:00
6:29 AM,21.2,17.6,86,30.09,5.0,WNW,4.6,-,N/A,,Overcast,300,2013-01-03 12:29:00
6:35 AM,21.2,17.6,86,30.09,5.0,WNW,4.6,-,N/A,,Overcast,290,2013-01-03 12:35:00
6:53 AM,21.9,18.0,85,30.14,5.0,WNW,6.9,-,N/A,,Overcast,300,2013-01-03 12:53:00
7:53 AM,21.9,18.0,85,30.16,4.0,WNW,5.8,-,N/A,,Overcast,300,2013-01-03 13:53:00
8:53 AM,23.0,18.0,81,30.18,4.0,NW,6.9,-,0.00,Snow,Light Snow,310,2013-01-03 14:53:00
9:53 AM,23.0,18.0,81,30.19,4.0,WNW,6.9,-,0.00,Snow,Light Snow,290,2013-01-03 15:53:00
10:53 AM,24.1,18.0,77,30.20,4.0,WNW,9.2,-,0.00,Snow,Light Snow,290,2013-01-03 16:53:00
11:15 AM,24.8,17.6,74,30.16,4.0,WNW,12.7,-,0.00,Snow,Light Snow,290,2013-01-03 17:15:00
11:53 AM,25.0,18.0,75,30.20,4.0,WNW,9.2,-,0.00,Snow,Light Snow,290,2013-01-03 17:53:00
12:53 PM,25.0,18.0,75,30.19,5.0,WNW,6.9,-,0.00,Snow,Light Snow,300,2013-01-03 18:53:00
1:46 PM,26.6,17.6,69,30.14,6.0,WNW,6.9,-,N/A,,Haze,300,2013-01-03 19:46:00
1:53 PM,26.1,19.0,75,30.19,6.0,WNW,5.8,-,N/A,,Haze,300,2013-01-03 19:53:00
2:11 PM,26.6,19.4,74,30.15,7.0,West,8.1,-,N/A,,Overcast,270,2013-01-03 20:11:00
2:53 PM,25.0,19.0,78,30.21,7.0,West,9.2,-,N/A,,Overcast,280,2013-01-03 20:53:00
3:53 PM,25.0,17.1,72,30.23,10.0,Variable,6.9,-,N/A,,Overcast,0,2013-01-03 21:53:00
4:26 PM,23.0,15.8,74,30.19,10.0,Variable,3.5,-,N/A,,Scattered Clouds,0,2013-01-03 22:26:00
4:53 PM,21.9,15.1,75,30.24,10.0,Variable,3.5,-,N/A,,Clear,0,2013-01-03 22:53:00
5:53 PM,21.0,15.1,78,30.25,10.0,WSW,8.1,-,N/A,,Clear,240,2013-01-03 23:53:00
6:53 PM,19.0,12.9,77,30.25,10.0,Variable,6.9,-,N/A,,Clear,0,2013-01-04 00:53:00
7:53 PM,18.0,12.0,78,30.25,10.0,WSW,11.5,-,N/A,,Clear,240,2013-01-04 01:53:00
8:53 PM,16.0,9.0,74,30.25,10.0,Variable,4.6,-,N/A,,Clear,0,2013-01-04 02:53:00
9:53 PM,14.0,8.1,77,30.25,10.0,WSW,8.1,-,N/A,,Clear,250,2013-01-04 03:53:00
10:53 PM,12.0,6.1,77,30.25,10.0,WSW,6.9,-,N/A,,Clear,240,2013-01-04 04:53:00
11:53 PM,12.0,5.0,73,30.23,10.0,WSW,4.6,-,N/A,,Clear,250,2013-01-04 05:53:00